sensor_id;sensor_type;location;lat;lon;timestamp;temperature;humidity
37678;DHT22;23517;50.390;8.616;2023-02-01T00:01:13;4.20;89.90
37678;DHT22;23517;50.390;8.616;2023-02-01T00:03:40;4.10;90.20
37678;DHT22;23517;50.390;8.616;2023-02-01T00:06:08;4.10;90.40
37678;DHT22;23517;50.390;8.616;2023-02-01T00:08:34;4.10;90.60
37678;DHT22;23517;50.390;8.616;2023-02-01T00:11:04;4.20;91.10
37678;DHT22;23517;50.390;8.616;2023-02-01T00:13:33;4.20;91.00
37678;DHT22;23517;50.390;8.616;2023-02-01T00:16:07;4.20;90.90
37678;DHT22;23517;50.390;8.616;2023-02-01T00:18:36;4.30;90.10
37678;DHT22;23517;50.390;8.616;2023-02-01T00:21:03;4.30;90.00
37678;DHT22;23517;50.390;8.616;2023-02-01T00:23:37;4.30;90.00
37678;DHT22;23517;50.390;8.616;2023-02-01T00:26:07;4.30;89.30
37678;DHT22;23517;50.390;8.616;2023-02-01T00:28:37;4.30;89.40
37678;DHT22;23517;50.390;8.616;2023-02-01T00:31:04;4.30;89.60
37678;DHT22;23517;50.390;8.616;2023-02-01T00:33:31;4.30;89.70
37678;DHT22;23517;50.390;8.616;2023-02-01T00:36:00;4.40;89.20
37678;DHT22;23517;50.390;8.616;2023-02-01T00:38:28;4.40;88.90
37678;DHT22;23517;50.390;8.616;2023-02-01T00:43:32;4.40;88.50
37678;DHT22;23517;50.390;8.616;2023-02-01T00:45:59;4.50;88.10
37678;DHT22;23517;50.390;8.616;2023-02-01T00:48:26;4.50;87.70
37678;DHT22;23517;50.390;8.616;2023-02-01T00:50:53;4.50;87.60
37678;DHT22;23517;50.390;8.616;2023-02-01T00:53:19;4.50;87.40
37678;DHT22;23517;50.390;8.616;2023-02-01T00:55:48;4.50;87.40
37678;DHT22;23517;50.390;8.616;2023-02-01T00:58:15;4.50;87.20
37678;DHT22;23517;50.390;8.616;2023-02-01T01:00:42;4.50;87.40
37678;DHT22;23517;50.390;8.616;2023-02-01T01:03:08;4.50;87.20
37678;DHT22;23517;50.390;8.616;2023-02-01T01:05:56;4.50;87.30
37678;DHT22;23517;50.390;8.616;2023-02-01T01:08:23;4.50;87.30
37678;DHT22;23517;50.390;8.616;2023-02-01T01:10:50;4.50;87.20
37678;DHT22;23517;50.390;8.616;2023-02-01T01:13:17;4.40;87.10
37678;DHT22;23517;50.390;8.616;2023-02-01T01:15:44;4.40;87.40
37678;DHT22;23517;50.390;8.616;2023-02-01T01:18:11;4.40;87.80
37678;DHT22;23517;50.390;8.616;2023-02-01T01:20:39;4.40;88.00
37678;DHT22;23517;50.390;8.616;2023-02-01T01:23:08;4.50;88.20
37678;DHT22;23517;50.390;8.616;2023-02-01T01:25:38;4.50;88.30
37678;DHT22;23517;50.390;8.616;2023-02-01T01:28:07;4.50;87.50
37678;DHT22;23517;50.390;8.616;2023-02-01T01:30:34;4.50;87.50
37678;DHT22;23517;50.390;8.616;2023-02-01T01:33:01;4.50;87.50
37678;DHT22;23517;50.390;8.616;2023-02-01T01:35:29;4.60;87.50
37678;DHT22;23517;50.390;8.616;2023-02-01T01:37:59;4.70;86.70
37678;DHT22;23517;50.390;8.616;2023-02-01T01:40:27;4.70;86.00
37678;DHT22;23517;50.390;8.616;2023-02-01T01:43:02;4.60;86.20
37678;DHT22;23517;50.390;8.616;2023-02-01T01:45:31;4.70;86.50
37678;DHT22;23517;50.390;8.616;2023-02-01T01:48:08;4.70;86.10
37678;DHT22;23517;50.390;8.616;2023-02-01T01:50:44;4.70;86.00
37678;DHT22;23517;50.390;8.616;2023-02-01T01:53:19;4.70;85.90
37678;DHT22;23517;50.390;8.616;2023-02-01T01:55:53;4.80;85.00
37678;DHT22;23517;50.390;8.616;2023-02-01T01:58:25;4.80;84.70
37678;DHT22;23517;50.390;8.616;2023-02-01T02:00:53;4.80;83.60
37678;DHT22;23517;50.390;8.616;2023-02-01T02:03:27;4.80;83.30
37678;DHT22;23517;50.390;8.616;2023-02-01T02:05:59;4.90;82.70
37678;DHT22;23517;50.390;8.616;2023-02-01T02:08:28;4.90;81.20
37678;DHT22;23517;50.390;8.616;2023-02-01T02:10:55;5.00;79.80
37678;DHT22;23517;50.390;8.616;2023-02-01T02:13:39;4.90;79.80
37678;DHT22;23517;50.390;8.616;2023-02-01T02:16:30;4.90;79.30
37678;DHT22;23517;50.390;8.616;2023-02-01T02:19:18;5.00;77.80
37678;DHT22;23517;50.390;8.616;2023-02-01T02:27:38;4.90;78.30
37678;DHT22;23517;50.390;8.616;2023-02-01T02:33:47;4.90;78.60
37678;DHT22;23517;50.390;8.616;2023-02-01T02:36:41;4.80;78.60
37678;DHT22;23517;50.390;8.616;2023-02-01T02:39:36;4.80;79.00
37678;DHT22;23517;50.390;8.616;2023-02-01T02:42:17;4.90;79.10
37678;DHT22;23517;50.390;8.616;2023-02-01T02:45:08;4.90;78.20
37678;DHT22;23517;50.390;8.616;2023-02-01T02:50:38;4.80;78.00
37678;DHT22;23517;50.390;8.616;2023-02-01T02:53:34;4.80;77.80
37678;DHT22;23517;50.390;8.616;2023-02-01T02:56:23;4.80;77.30
37678;DHT22;23517;50.390;8.616;2023-02-01T02:59:11;4.80;77.10
37678;DHT22;23517;50.390;8.616;2023-02-01T03:01:57;4.80;77.20
37678;DHT22;23517;50.390;8.616;2023-02-01T03:04:43;4.70;77.30
37678;DHT22;23517;50.390;8.616;2023-02-01T03:07:15;4.80;76.20
37678;DHT22;23517;50.390;8.616;2023-02-01T03:10:30;4.70;75.70
37678;DHT22;23517;50.390;8.616;2023-02-01T03:13:26;4.80;74.40
37678;DHT22;23517;50.390;8.616;2023-02-01T03:16:40;4.80;72.80
37678;DHT22;23517;50.390;8.616;2023-02-01T03:19:27;4.80;71.90
37678;DHT22;23517;50.390;8.616;2023-02-01T03:22:01;4.80;71.10
37678;DHT22;23517;50.390;8.616;2023-02-01T03:24:34;4.90;70.70
37678;DHT22;23517;50.390;8.616;2023-02-01T03:27:27;4.80;70.60
37678;DHT22;23517;50.390;8.616;2023-02-01T03:30:17;4.80;69.00
37678;DHT22;23517;50.390;8.616;2023-02-01T03:32:48;4.80;67.60
37678;DHT22;23517;50.390;8.616;2023-02-01T03:41:34;4.80;66.60
37678;DHT22;23517;50.390;8.616;2023-02-01T03:44:14;4.80;65.80
37678;DHT22;23517;50.390;8.616;2023-02-01T03:46:53;4.90;66.20
37678;DHT22;23517;50.390;8.616;2023-02-01T03:49:44;4.80;64.50
37678;DHT22;23517;50.390;8.616;2023-02-01T03:52:16;4.80;64.60
37678;DHT22;23517;50.390;8.616;2023-02-01T03:54:45;4.80;64.70
37678;DHT22;23517;50.390;8.616;2023-02-01T03:57:14;4.80;64.00
37678;DHT22;23517;50.390;8.616;2023-02-01T03:59:47;4.80;63.60
37678;DHT22;23517;50.390;8.616;2023-02-01T04:02:13;4.80;63.70
37678;DHT22;23517;50.390;8.616;2023-02-01T04:04:40;4.80;63.80
37678;DHT22;23517;50.390;8.616;2023-02-01T04:07:06;4.80;63.70
37678;DHT22;23517;50.390;8.616;2023-02-01T04:09:36;4.80;64.30
37678;DHT22;23517;50.390;8.616;2023-02-01T04:12:02;4.80;63.80
37678;DHT22;23517;50.390;8.616;2023-02-01T04:14:29;4.80;63.60
37678;DHT22;23517;50.390;8.616;2023-02-01T04:16:56;4.80;63.50
37678;DHT22;23517;50.390;8.616;2023-02-01T04:19:22;4.80;64.20
37678;DHT22;23517;50.390;8.616;2023-02-01T04:21:49;4.80;64.00
37678;DHT22;23517;50.390;8.616;2023-02-01T04:24:16;4.70;63.70
37678;DHT22;23517;50.390;8.616;2023-02-01T04:26:42;4.80;63.80
37678;DHT22;23517;50.390;8.616;2023-02-01T04:29:09;4.80;63.60
37678;DHT22;23517;50.390;8.616;2023-02-01T04:31:36;4.80;63.80
37678;DHT22;23517;50.390;8.616;2023-02-01T04:34:03;4.70;63.80
37678;DHT22;23517;50.390;8.616;2023-02-01T04:36:30;4.80;64.10
37678;DHT22;23517;50.390;8.616;2023-02-01T04:38:56;4.70;64.50
37678;DHT22;23517;50.390;8.616;2023-02-01T04:41:23;4.80;64.60
37678;DHT22;23517;50.390;8.616;2023-02-01T04:43:50;4.70;64.60
37678;DHT22;23517;50.390;8.616;2023-02-01T04:46:18;4.70;64.80
37678;DHT22;23517;50.390;8.616;2023-02-01T04:48:45;4.70;64.50
37678;DHT22;23517;50.390;8.616;2023-02-01T04:51:12;4.70;65.20
37678;DHT22;23517;50.390;8.616;2023-02-01T04:53:39;4.60;65.50
37678;DHT22;23517;50.390;8.616;2023-02-01T04:56:06;4.70;65.50
37678;DHT22;23517;50.390;8.616;2023-02-01T04:58:34;4.70;64.90
37678;DHT22;23517;50.390;8.616;2023-02-01T05:01:05;4.60;65.00
37678;DHT22;23517;50.390;8.616;2023-02-01T05:03:33;4.60;65.70
37678;DHT22;23517;50.390;8.616;2023-02-01T05:06:00;4.60;66.10
37678;DHT22;23517;50.390;8.616;2023-02-01T05:08:27;4.60;66.00
37678;DHT22;23517;50.390;8.616;2023-02-01T05:10:55;4.60;65.80
37678;DHT22;23517;50.390;8.616;2023-02-01T05:13:21;4.60;66.00
37678;DHT22;23517;50.390;8.616;2023-02-01T05:16:07;4.60;66.50
37678;DHT22;23517;50.390;8.616;2023-02-01T05:18:33;4.60;66.30
37678;DHT22;23517;50.390;8.616;2023-02-01T05:21:00;4.60;66.50
37678;DHT22;23517;50.390;8.616;2023-02-01T05:23:28;4.60;66.60
37678;DHT22;23517;50.390;8.616;2023-02-01T05:26:01;4.60;65.90
37678;DHT22;23517;50.390;8.616;2023-02-01T05:28:28;4.60;65.70
37678;DHT22;23517;50.390;8.616;2023-02-01T05:30:55;4.60;65.50
37678;DHT22;23517;50.390;8.616;2023-02-01T05:33:22;4.60;65.40
37678;DHT22;23517;50.390;8.616;2023-02-01T05:35:49;4.60;65.40
37678;DHT22;23517;50.390;8.616;2023-02-01T05:38:16;4.60;64.60
37678;DHT22;23517;50.390;8.616;2023-02-01T05:40:43;4.60;64.00
37678;DHT22;23517;50.390;8.616;2023-02-01T05:43:15;4.60;63.90
37678;DHT22;23517;50.390;8.616;2023-02-01T05:45:42;4.50;64.00
37678;DHT22;23517;50.390;8.616;2023-02-01T05:48:09;4.50;63.80
37678;DHT22;23517;50.390;8.616;2023-02-01T05:50:35;4.50;64.10
37678;DHT22;23517;50.390;8.616;2023-02-01T05:53:02;4.50;64.00
37678;DHT22;23517;50.390;8.616;2023-02-01T05:55:28;4.50;64.00
37678;DHT22;23517;50.390;8.616;2023-02-01T05:57:55;4.50;64.50
37678;DHT22;23517;50.390;8.616;2023-02-01T06:00:22;4.50;63.60
37678;DHT22;23517;50.390;8.616;2023-02-01T06:02:49;4.50;63.40
37678;DHT22;23517;50.390;8.616;2023-02-01T06:05:16;4.50;62.30
37678;DHT22;23517;50.390;8.616;2023-02-01T06:07:43;4.50;62.90
37678;DHT22;23517;50.390;8.616;2023-02-01T06:10:10;4.60;62.20
37678;DHT22;23517;50.390;8.616;2023-02-01T06:12:36;4.50;61.80
37678;DHT22;23517;50.390;8.616;2023-02-01T06:15:04;4.50;62.30
37678;DHT22;23517;50.390;8.616;2023-02-01T06:17:31;4.50;62.30
37678;DHT22;23517;50.390;8.616;2023-02-01T06:20:05;4.50;61.80
37678;DHT22;23517;50.390;8.616;2023-02-01T06:22:33;4.40;62.40
37678;DHT22;23517;50.390;8.616;2023-02-01T06:25:03;4.40;61.00
37678;DHT22;23517;50.390;8.616;2023-02-01T06:27:31;4.40;60.70
37678;DHT22;23517;50.390;8.616;2023-02-01T06:29:58;4.30;61.20
37678;DHT22;23517;50.390;8.616;2023-02-01T06:32:27;4.40;60.90
37678;DHT22;23517;50.390;8.616;2023-02-01T06:34:54;4.30;60.70
37678;DHT22;23517;50.390;8.616;2023-02-01T06:37:23;4.40;60.30
37678;DHT22;23517;50.390;8.616;2023-02-01T06:39:51;4.30;60.50
37678;DHT22;23517;50.390;8.616;2023-02-01T06:42:18;4.30;60.50
37678;DHT22;23517;50.390;8.616;2023-02-01T06:44:44;4.30;61.10
37678;DHT22;23517;50.390;8.616;2023-02-01T06:47:11;4.30;60.90
37678;DHT22;23517;50.390;8.616;2023-02-01T06:49:37;4.20;61.30
37678;DHT22;23517;50.390;8.616;2023-02-01T06:52:04;4.30;61.70
37678;DHT22;23517;50.390;8.616;2023-02-01T06:54:31;4.30;60.40
37678;DHT22;23517;50.390;8.616;2023-02-01T06:57:00;4.30;60.00
37678;DHT22;23517;50.390;8.616;2023-02-01T06:59:26;4.30;60.40
37678;DHT22;23517;50.390;8.616;2023-02-01T07:01:53;4.20;60.90
37678;DHT22;23517;50.390;8.616;2023-02-01T07:04:22;4.20;60.90
37678;DHT22;23517;50.390;8.616;2023-02-01T07:06:48;4.20;60.40
37678;DHT22;23517;50.390;8.616;2023-02-01T07:09:17;4.40;60.00
37678;DHT22;23517;50.390;8.616;2023-02-01T07:11:43;4.40;59.50
37678;DHT22;23517;50.390;8.616;2023-02-01T07:14:10;4.40;59.70
37678;DHT22;23517;50.390;8.616;2023-02-01T07:16:37;4.50;59.10
37678;DHT22;23517;50.390;8.616;2023-02-01T07:19:04;4.60;58.60
37678;DHT22;23517;50.390;8.616;2023-02-01T07:21:31;4.60;58.70
37678;DHT22;23517;50.390;8.616;2023-02-01T07:23:58;4.60;58.50
37678;DHT22;23517;50.390;8.616;2023-02-01T07:26:25;4.60;58.30
37678;DHT22;23517;50.390;8.616;2023-02-01T07:28:51;4.70;57.50
37678;DHT22;23517;50.390;8.616;2023-02-01T07:31:19;4.80;57.10
37678;DHT22;23517;50.390;8.616;2023-02-01T07:33:48;4.80;56.70
37678;DHT22;23517;50.390;8.616;2023-02-01T07:36:18;4.80;56.70
37678;DHT22;23517;50.390;8.616;2023-02-01T07:38:46;4.80;56.30
37678;DHT22;23517;50.390;8.616;2023-02-01T07:41:19;4.90;56.10
37678;DHT22;23517;50.390;8.616;2023-02-01T07:43:46;4.90;55.50
37678;DHT22;23517;50.390;8.616;2023-02-01T07:46:13;4.80;55.80
37678;DHT22;23517;50.390;8.616;2023-02-01T07:48:41;4.90;55.40
37678;DHT22;23517;50.390;8.616;2023-02-01T07:51:11;5.00;55.70
37678;DHT22;23517;50.390;8.616;2023-02-01T07:53:40;5.00;56.10
37678;DHT22;23517;50.390;8.616;2023-02-01T07:56:13;5.10;55.50
37678;DHT22;23517;50.390;8.616;2023-02-01T07:58:41;5.10;54.30
37678;DHT22;23517;50.390;8.616;2023-02-01T08:01:17;5.10;54.30
37678;DHT22;23517;50.390;8.616;2023-02-01T08:04:01;5.10;54.80
37678;DHT22;23517;50.390;8.616;2023-02-01T08:06:31;5.10;54.50
37678;DHT22;23517;50.390;8.616;2023-02-01T08:08:58;5.10;54.50
37678;DHT22;23517;50.390;8.616;2023-02-01T08:11:25;5.10;54.50
37678;DHT22;23517;50.390;8.616;2023-02-01T08:13:53;5.10;54.10
37678;DHT22;23517;50.390;8.616;2023-02-01T08:16:20;5.10;54.40
37678;DHT22;23517;50.390;8.616;2023-02-01T08:18:48;5.10;53.80
37678;DHT22;23517;50.390;8.616;2023-02-01T08:21:20;5.10;53.90
37678;DHT22;23517;50.390;8.616;2023-02-01T08:23:49;5.10;54.10
37678;DHT22;23517;50.390;8.616;2023-02-01T08:26:18;5.10;54.30
37678;DHT22;23517;50.390;8.616;2023-02-01T08:28:51;5.10;53.70
37678;DHT22;23517;50.390;8.616;2023-02-01T08:31:21;5.10;53.40
37678;DHT22;23517;50.390;8.616;2023-02-01T08:33:54;5.10;53.90
37678;DHT22;23517;50.390;8.616;2023-02-01T08:36:27;5.10;53.90
37678;DHT22;23517;50.390;8.616;2023-02-01T08:38:56;5.20;53.90
37678;DHT22;23517;50.390;8.616;2023-02-01T08:41:24;5.20;53.50
37678;DHT22;23517;50.390;8.616;2023-02-01T08:43:53;5.20;53.00
37678;DHT22;23517;50.390;8.616;2023-02-01T08:46:21;5.30;53.30
37678;DHT22;23517;50.390;8.616;2023-02-01T08:48:49;5.30;52.80
37678;DHT22;23517;50.390;8.616;2023-02-01T08:51:18;5.30;53.30
37678;DHT22;23517;50.390;8.616;2023-02-01T08:53:45;5.40;52.60
37678;DHT22;23517;50.390;8.616;2023-02-01T08:56:16;5.30;52.30
37678;DHT22;23517;50.390;8.616;2023-02-01T08:58:45;5.40;52.70
37678;DHT22;23517;50.390;8.616;2023-02-01T09:01:14;5.30;52.90
37678;DHT22;23517;50.390;8.616;2023-02-01T09:03:43;5.30;53.10
37678;DHT22;23517;50.390;8.616;2023-02-01T09:06:12;5.30;52.90
37678;DHT22;23517;50.390;8.616;2023-02-01T09:08:40;5.30;52.70
37678;DHT22;23517;50.390;8.616;2023-02-01T09:11:11;5.20;53.00
37678;DHT22;23517;50.390;8.616;2023-02-01T09:13:40;5.20;52.90
37678;DHT22;23517;50.390;8.616;2023-02-01T09:16:06;5.20;53.30
37678;DHT22;23517;50.390;8.616;2023-02-01T09:18:33;5.20;53.40
37678;DHT22;23517;50.390;8.616;2023-02-01T09:21:07;5.20;53.50
37678;DHT22;23517;50.390;8.616;2023-02-01T09:23:34;5.20;53.20
37678;DHT22;23517;50.390;8.616;2023-02-01T09:26:02;5.30;53.20
37678;DHT22;23517;50.390;8.616;2023-02-01T09:28:31;5.40;52.80
37678;DHT22;23517;50.390;8.616;2023-02-01T09:30:58;5.40;52.80
37678;DHT22;23517;50.390;8.616;2023-02-01T09:33:27;5.50;52.80
37678;DHT22;23517;50.390;8.616;2023-02-01T09:36:02;5.50;52.60
37678;DHT22;23517;50.390;8.616;2023-02-01T09:38:31;5.50;51.90
37678;DHT22;23517;50.390;8.616;2023-02-01T09:41:00;5.50;51.90
37678;DHT22;23517;50.390;8.616;2023-02-01T09:43:46;5.60;51.70
37678;DHT22;23517;50.390;8.616;2023-02-01T09:46:32;5.50;52.20
37678;DHT22;23517;50.390;8.616;2023-02-01T09:49:04;5.60;52.40
37678;DHT22;23517;50.390;8.616;2023-02-01T09:51:38;5.60;52.40
37678;DHT22;23517;50.390;8.616;2023-02-01T09:56:53;5.70;51.40
37678;DHT22;23517;50.390;8.616;2023-02-01T10:02:24;5.90;51.10
37678;DHT22;23517;50.390;8.616;2023-02-01T10:04:56;6.00;50.70
37678;DHT22;23517;50.390;8.616;2023-02-01T10:07:51;6.00;50.50
37678;DHT22;23517;50.390;8.616;2023-02-01T10:10:28;6.30;50.50
37678;DHT22;23517;50.390;8.616;2023-02-01T10:16:22;6.30;48.80
37678;DHT22;23517;50.390;8.616;2023-02-01T10:19:24;6.40;49.00
37678;DHT22;23517;50.390;8.616;2023-02-01T10:22:08;6.50;47.30
37678;DHT22;23517;50.390;8.616;2023-02-01T10:27:18;6.60;47.60
37678;DHT22;23517;50.390;8.616;2023-02-01T10:29:59;6.70;47.60
37678;DHT22;23517;50.390;8.616;2023-02-01T10:32:34;6.90;47.00
37678;DHT22;23517;50.390;8.616;2023-02-01T10:35:11;6.80;46.70
37678;DHT22;23517;50.390;8.616;2023-02-01T10:37:41;6.70;46.70
37678;DHT22;23517;50.390;8.616;2023-02-01T10:40:27;6.60;47.00
37678;DHT22;23517;50.390;8.616;2023-02-01T10:43:00;6.60;47.30
37678;DHT22;23517;50.390;8.616;2023-02-01T10:45:32;6.60;46.60
37678;DHT22;23517;50.390;8.616;2023-02-01T10:48:01;6.50;46.80
37678;DHT22;23517;50.390;8.616;2023-02-01T10:50:49;6.50;47.10
37678;DHT22;23517;50.390;8.616;2023-02-01T10:53:33;6.40;47.20
37678;DHT22;23517;50.390;8.616;2023-02-01T10:56:07;6.40;47.10
37678;DHT22;23517;50.390;8.616;2023-02-01T10:58:36;6.40;47.10
37678;DHT22;23517;50.390;8.616;2023-02-01T11:01:19;6.50;47.50
37678;DHT22;23517;50.390;8.616;2023-02-01T11:03:52;6.50;46.60
37678;DHT22;23517;50.390;8.616;2023-02-01T11:09:24;6.50;46.90
37678;DHT22;23517;50.390;8.616;2023-02-01T11:12:00;6.50;46.70
37678;DHT22;23517;50.390;8.616;2023-02-01T11:14:30;6.50;46.60
37678;DHT22;23517;50.390;8.616;2023-02-01T11:17:17;6.50;46.70
37678;DHT22;23517;50.390;8.616;2023-02-01T11:20:05;6.40;46.70
37678;DHT22;23517;50.390;8.616;2023-02-01T11:22:46;6.40;47.40
37678;DHT22;23517;50.390;8.616;2023-02-01T11:25:16;6.50;47.10
37678;DHT22;23517;50.390;8.616;2023-02-01T11:27:44;6.50;46.90
37678;DHT22;23517;50.390;8.616;2023-02-01T11:30:37;6.50;47.30
37678;DHT22;23517;50.390;8.616;2023-02-01T11:33:09;6.60;46.80
37678;DHT22;23517;50.390;8.616;2023-02-01T11:35:40;6.50;47.00
37678;DHT22;23517;50.390;8.616;2023-02-01T11:38:22;6.50;47.20
37678;DHT22;23517;50.390;8.616;2023-02-01T11:41:13;6.40;47.80
37678;DHT22;23517;50.390;8.616;2023-02-01T11:44:20;6.40;47.70
37678;DHT22;23517;50.390;8.616;2023-02-01T11:46:49;6.40;48.20
37678;DHT22;23517;50.390;8.616;2023-02-01T11:49:24;6.50;47.80
37678;DHT22;23517;50.390;8.616;2023-02-01T11:52:13;6.50;47.70
37678;DHT22;23517;50.390;8.616;2023-02-01T12:07:00;6.80;46.20
37678;DHT22;23517;50.390;8.616;2023-02-01T12:09:47;6.80;46.10
37678;DHT22;23517;50.390;8.616;2023-02-01T12:12:26;6.70;46.60
37678;DHT22;23517;50.390;8.616;2023-02-01T12:18:12;6.90;46.40
37678;DHT22;23517;50.390;8.616;2023-02-01T12:21:06;7.00;45.80
37678;DHT22;23517;50.390;8.616;2023-02-01T12:29:37;6.90;45.60
37678;DHT22;23517;50.390;8.616;2023-02-01T12:32:24;6.90;45.30
37678;DHT22;23517;50.390;8.616;2023-02-01T12:35:09;7.00;45.30
37678;DHT22;23517;50.390;8.616;2023-02-01T12:41:12;7.00;44.50
37678;DHT22;23517;50.390;8.616;2023-02-01T12:43:59;7.00;45.10
37678;DHT22;23517;50.390;8.616;2023-02-01T12:46:49;7.00;44.90
37678;DHT22;23517;50.390;8.616;2023-02-01T12:49:26;7.00;45.10
37678;DHT22;23517;50.390;8.616;2023-02-01T12:52:00;7.00;44.80
37678;DHT22;23517;50.390;8.616;2023-02-01T12:54:48;7.00;43.90
37678;DHT22;23517;50.390;8.616;2023-02-01T12:57:26;6.90;44.00
37678;DHT22;23517;50.390;8.616;2023-02-01T13:00:19;6.90;44.30
37678;DHT22;23517;50.390;8.616;2023-02-01T13:03:30;6.90;44.20
37678;DHT22;23517;50.390;8.616;2023-02-01T13:06:13;6.90;44.40
37678;DHT22;23517;50.390;8.616;2023-02-01T13:11:31;7.00;44.90
37678;DHT22;23517;50.390;8.616;2023-02-01T13:17:05;7.00;43.90
37678;DHT22;23517;50.390;8.616;2023-02-01T13:22:41;6.90;44.50
37678;DHT22;23517;50.390;8.616;2023-02-01T13:27:37;7.00;44.30
37678;DHT22;23517;50.390;8.616;2023-02-01T13:33:51;7.00;44.20
37678;DHT22;23517;50.390;8.616;2023-02-01T13:42:23;7.00;44.50
37678;DHT22;23517;50.390;8.616;2023-02-01T13:47:42;7.10;44.80
37678;DHT22;23517;50.390;8.616;2023-02-01T13:50:29;7.10;44.40
37678;DHT22;23517;50.390;8.616;2023-02-01T13:53:04;7.20;43.90
37678;DHT22;23517;50.390;8.616;2023-02-01T13:55:59;7.20;43.80
37678;DHT22;23517;50.390;8.616;2023-02-01T13:58:37;7.20;43.80
37678;DHT22;23517;50.390;8.616;2023-02-01T14:03:51;7.10;43.90
37678;DHT22;23517;50.390;8.616;2023-02-01T14:19:37;7.20;43.70
37678;DHT22;23517;50.390;8.616;2023-02-01T14:24:55;7.20;43.50
37678;DHT22;23517;50.390;8.616;2023-02-01T14:27:26;7.20;43.40
37678;DHT22;23517;50.390;8.616;2023-02-01T14:30:07;7.20;43.80
37678;DHT22;23517;50.390;8.616;2023-02-01T14:32:39;7.20;43.70
37678;DHT22;23517;50.390;8.616;2023-02-01T14:35:27;7.20;43.70
37678;DHT22;23517;50.390;8.616;2023-02-01T14:37:59;7.30;43.60
37678;DHT22;23517;50.390;8.616;2023-02-01T14:40:29;7.20;43.70
37678;DHT22;23517;50.390;8.616;2023-02-01T14:42:57;7.20;43.90
37678;DHT22;23517;50.390;8.616;2023-02-01T14:53:21;7.10;46.10
37678;DHT22;23517;50.390;8.616;2023-02-01T14:58:45;7.00;47.60
37678;DHT22;23517;50.390;8.616;2023-02-01T15:01:21;6.90;47.90
37678;DHT22;23517;50.390;8.616;2023-02-01T15:04:12;6.80;48.30
37678;DHT22;23517;50.390;8.616;2023-02-01T15:06:48;6.70;48.80
37678;DHT22;23517;50.390;8.616;2023-02-01T15:12:16;6.60;49.60
37678;DHT22;23517;50.390;8.616;2023-02-01T15:15:02;6.60;50.20
37678;DHT22;23517;50.390;8.616;2023-02-01T15:17:59;6.50;51.20
37678;DHT22;23517;50.390;8.616;2023-02-01T15:20:32;6.40;53.10
37678;DHT22;23517;50.390;8.616;2023-02-01T15:23:00;6.40;53.00
37678;DHT22;23517;50.390;8.616;2023-02-01T15:25:38;6.40;54.10
37678;DHT22;23517;50.390;8.616;2023-02-01T15:28:09;6.30;54.10
37678;DHT22;23517;50.390;8.616;2023-02-01T15:30:39;6.20;55.00
37678;DHT22;23517;50.390;8.616;2023-02-01T15:35:47;6.10;56.10
37678;DHT22;23517;50.390;8.616;2023-02-01T15:41:01;6.00;56.50
37678;DHT22;23517;50.390;8.616;2023-02-01T15:43:33;6.00;56.60
37678;DHT22;23517;50.390;8.616;2023-02-01T15:46:08;6.00;57.30
37678;DHT22;23517;50.390;8.616;2023-02-01T15:48:44;6.00;58.30
37678;DHT22;23517;50.390;8.616;2023-02-01T15:51:15;5.90;59.30
37678;DHT22;23517;50.390;8.616;2023-02-01T15:53:53;5.80;59.90
37678;DHT22;23517;50.390;8.616;2023-02-01T15:56:27;5.80;60.90
37678;DHT22;23517;50.390;8.616;2023-02-01T15:58:59;5.70;61.50
37678;DHT22;23517;50.390;8.616;2023-02-01T16:01:27;5.70;61.90
37678;DHT22;23517;50.390;8.616;2023-02-01T16:04:04;5.70;61.80
37678;DHT22;23517;50.390;8.616;2023-02-01T16:06:46;5.70;62.30
37678;DHT22;23517;50.390;8.616;2023-02-01T16:09:18;5.60;61.90
37678;DHT22;23517;50.390;8.616;2023-02-01T16:11:54;5.60;61.80
37678;DHT22;23517;50.390;8.616;2023-02-01T16:14:25;5.60;61.70
37678;DHT22;23517;50.390;8.616;2023-02-01T16:16:54;5.60;60.40
37678;DHT22;23517;50.390;8.616;2023-02-01T16:19:22;5.60;60.10
37678;DHT22;23517;50.390;8.616;2023-02-01T16:21:55;5.60;60.40
37678;DHT22;23517;50.390;8.616;2023-02-01T16:24:24;5.60;60.80
37678;DHT22;23517;50.390;8.616;2023-02-01T16:26:52;5.70;60.00
37678;DHT22;23517;50.390;8.616;2023-02-01T16:29:19;5.70;60.20
37678;DHT22;23517;50.390;8.616;2023-02-01T16:31:48;5.70;59.90
37678;DHT22;23517;50.390;8.616;2023-02-01T16:34:16;5.70;59.70
37678;DHT22;23517;50.390;8.616;2023-02-01T16:36:46;5.70;60.20
37678;DHT22;23517;50.390;8.616;2023-02-01T16:39:19;5.70;60.20
37678;DHT22;23517;50.390;8.616;2023-02-01T16:41:46;5.70;59.80
37678;DHT22;23517;50.390;8.616;2023-02-01T16:44:13;5.70;59.80
37678;DHT22;23517;50.390;8.616;2023-02-01T16:46:42;5.70;59.90
37678;DHT22;23517;50.390;8.616;2023-02-01T16:49:23;5.70;60.00
37678;DHT22;23517;50.390;8.616;2023-02-01T16:51:51;5.60;59.90
37678;DHT22;23517;50.390;8.616;2023-02-01T16:54:21;5.60;59.70
37678;DHT22;23517;50.390;8.616;2023-02-01T16:56:48;5.60;59.60
37678;DHT22;23517;50.390;8.616;2023-02-01T16:59:16;5.60;58.90
37678;DHT22;23517;50.390;8.616;2023-02-01T17:01:42;5.70;59.20
37678;DHT22;23517;50.390;8.616;2023-02-01T17:04:10;5.70;59.30
37678;DHT22;23517;50.390;8.616;2023-02-01T17:06:38;5.70;58.80
37678;DHT22;23517;50.390;8.616;2023-02-01T17:09:05;5.70;58.80
37678;DHT22;23517;50.390;8.616;2023-02-01T17:11:32;5.80;58.70
37678;DHT22;23517;50.390;8.616;2023-02-01T17:14:18;5.80;59.20
37678;DHT22;23517;50.390;8.616;2023-02-01T17:16:47;5.80;59.00
37678;DHT22;23517;50.390;8.616;2023-02-01T17:19:16;5.80;58.90
37678;DHT22;23517;50.390;8.616;2023-02-01T17:21:48;5.80;59.20
37678;DHT22;23517;50.390;8.616;2023-02-01T17:24:19;5.80;59.40
37678;DHT22;23517;50.390;8.616;2023-02-01T17:26:50;5.80;60.20
37678;DHT22;23517;50.390;8.616;2023-02-01T17:29:18;5.80;60.80
37678;DHT22;23517;50.390;8.616;2023-02-01T17:31:53;5.80;61.40
37678;DHT22;23517;50.390;8.616;2023-02-01T17:34:21;5.70;62.10
37678;DHT22;23517;50.390;8.616;2023-02-01T17:36:48;5.70;62.40
37678;DHT22;23517;50.390;8.616;2023-02-01T17:39:16;5.70;63.90
37678;DHT22;23517;50.390;8.616;2023-02-01T17:42:03;5.60;64.20
37678;DHT22;23517;50.390;8.616;2023-02-01T17:44:31;5.60;65.30
37678;DHT22;23517;50.390;8.616;2023-02-01T17:46:58;5.50;65.70
37678;DHT22;23517;50.390;8.616;2023-02-01T17:49:25;5.50;66.20
37678;DHT22;23517;50.390;8.616;2023-02-01T17:51:55;5.50;66.70
37678;DHT22;23517;50.390;8.616;2023-02-01T17:54:22;5.40;67.30
37678;DHT22;23517;50.390;8.616;2023-02-01T17:56:51;5.40;68.00
37678;DHT22;23517;50.390;8.616;2023-02-01T17:59:17;5.40;67.80
37678;DHT22;23517;50.390;8.616;2023-02-01T18:01:44;5.40;68.50
37678;DHT22;23517;50.390;8.616;2023-02-01T18:04:12;5.40;68.00
37678;DHT22;23517;50.390;8.616;2023-02-01T18:06:38;5.40;68.00
37678;DHT22;23517;50.390;8.616;2023-02-01T18:09:05;5.30;68.20
37678;DHT22;23517;50.390;8.616;2023-02-01T18:11:32;5.40;68.30
37678;DHT22;23517;50.390;8.616;2023-02-01T18:13:59;5.30;69.20
37678;DHT22;23517;50.390;8.616;2023-02-01T18:16:29;5.30;69.40
37678;DHT22;23517;50.390;8.616;2023-02-01T18:18:57;5.30;69.50
37678;DHT22;23517;50.390;8.616;2023-02-01T18:21:36;5.40;69.20